sensor_id;sensor_type;location;lat;lon;timestamp;P1;durP1;ratioP1;P2;durP2;ratioP2
78298;SDS011;67556;55.656;12.590;2023-07-29T00:00:32;3.88;;;3.17;;
78298;SDS011;67556;55.656;12.590;2023-07-29T00:03:11;4.57;;;2.95;;
78298;SDS011;67556;55.656;12.590;2023-07-29T00:05:56;5.90;;;3.33;;
78298;SDS011;67556;55.656;12.590;2023-07-29T00:08:37;4.95;;;3.47;;
78298;SDS011;67556;55.656;12.590;2023-07-29T00:11:21;5.38;;;3.70;;
78298;SDS011;67556;55.656;12.590;2023-07-29T00:14:08;5.28;;;3.53;;
78298;SDS011;67556;55.656;12.590;2023-07-29T00:16:49;7.38;;;3.60;;
78298;SDS011;67556;55.656;12.590;2023-07-29T00:19:16;4.97;;;3.63;;
78298;SDS011;67556;55.656;12.590;2023-07-29T00:21:57;4.85;;;3.78;;
78298;SDS011;67556;55.656;12.590;2023-07-29T00:24:39;5.35;;;3.40;;
78298;SDS011;67556;55.656;12.590;2023-07-29T00:27:25;4.57;;;3.35;;
78298;SDS011;67556;55.656;12.590;2023-07-29T00:30:11;5.78;;;3.50;;
78298;SDS011;67556;55.656;12.590;2023-07-29T00:35:31;5.28;;;3.65;;
78298;SDS011;67556;55.656;12.590;2023-07-29T00:37:58;4.95;;;3.40;;
78298;SDS011;67556;55.656;12.590;2023-07-29T00:40:31;4.63;;;3.53;;
78298;SDS011;67556;55.656;12.590;2023-07-29T00:43:20;7.25;;;3.75;;
78298;SDS011;67556;55.656;12.590;2023-07-29T00:45:48;5.30;;;3.50;;
78298;SDS011;67556;55.656;12.590;2023-07-29T00:48:33;5.75;;;3.60;;
78298;SDS011;67556;55.656;12.590;2023-07-29T00:50:59;5.05;;;3.38;;
78298;SDS011;67556;55.656;12.590;2023-07-29T00:53:26;5.28;;;4.03;;
78298;SDS011;67556;55.656;12.590;2023-07-29T00:56:11;3.88;;;3.40;;
78298;SDS011;67556;55.656;12.590;2023-07-29T00:58:37;4.55;;;3.85;;
78298;SDS011;67556;55.656;12.590;2023-07-29T01:01:12;4.43;;;3.45;;
78298;SDS011;67556;55.656;12.590;2023-07-29T01:03:57;5.88;;;3.33;;
78298;SDS011;67556;55.656;12.590;2023-07-29T01:06:27;5.20;;;3.75;;
78298;SDS011;67556;55.656;12.590;2023-07-29T01:09:01;4.43;;;3.35;;
78298;SDS011;67556;55.656;12.590;2023-07-29T01:11:38;5.03;;;3.38;;
78298;SDS011;67556;55.656;12.590;2023-07-29T01:14:33;6.00;;;3.85;;
78298;SDS011;67556;55.656;12.590;2023-07-29T01:17:07;5.93;;;3.75;;
78298;SDS011;67556;55.656;12.590;2023-07-29T01:19:57;5.65;;;3.30;;
78298;SDS011;67556;55.656;12.590;2023-07-29T01:22:35;4.20;;;3.45;;
78298;SDS011;67556;55.656;12.590;2023-07-29T01:25:16;7.05;;;3.95;;
78298;SDS011;67556;55.656;12.590;2023-07-29T01:28:01;5.40;;;3.63;;
78298;SDS011;67556;55.656;12.590;2023-07-29T01:30:46;4.65;;;4.03;;
78298;SDS011;67556;55.656;12.590;2023-07-29T01:33:16;6.05;;;3.40;;
78298;SDS011;67556;55.656;12.590;2023-07-29T01:35:58;4.97;;;3.75;;
78298;SDS011;67556;55.656;12.590;2023-07-29T01:38:35;4.15;;;3.55;;
78298;SDS011;67556;55.656;12.590;2023-07-29T01:41:23;4.78;;;3.65;;
78298;SDS011;67556;55.656;12.590;2023-07-29T01:43:57;5.50;;;3.55;;
78298;SDS011;67556;55.656;12.590;2023-07-29T01:46:43;6.68;;;4.35;;
78298;SDS011;67556;55.656;12.590;2023-07-29T01:49:29;5.38;;;3.88;;
78298;SDS011;67556;55.656;12.590;2023-07-29T01:51:55;5.50;;;3.85;;
78298;SDS011;67556;55.656;12.590;2023-07-29T01:54:40;4.97;;;3.90;;
78298;SDS011;67556;55.656;12.590;2023-07-29T01:57:08;5.88;;;4.18;;
78298;SDS011;67556;55.656;12.590;2023-07-29T01:59:52;5.47;;;3.92;;
78298;SDS011;67556;55.656;12.590;2023-07-29T02:02:38;5.43;;;4.18;;
78298;SDS011;67556;55.656;12.590;2023-07-29T02:05:04;4.88;;;4.10;;
78298;SDS011;67556;55.656;12.590;2023-07-29T02:07:50;4.60;;;3.83;;
78298;SDS011;67556;55.656;12.590;2023-07-29T02:10:34;4.90;;;4.10;;
78298;SDS011;67556;55.656;12.590;2023-07-29T02:13:02;5.63;;;4.38;;
78298;SDS011;67556;55.656;12.590;2023-07-29T02:15:48;5.32;;;3.83;;
78298;SDS011;67556;55.656;12.590;2023-07-29T02:18:14;5.97;;;4.18;;
78298;SDS011;67556;55.656;12.590;2023-07-29T02:20:59;6.38;;;4.07;;
78298;SDS011;67556;55.656;12.590;2023-07-29T02:23:25;5.28;;;4.35;;
78298;SDS011;67556;55.656;12.590;2023-07-29T02:26:10;5.57;;;4.30;;
78298;SDS011;67556;55.656;12.590;2023-07-29T02:28:38;5.88;;;3.90;;
78298;SDS011;67556;55.656;12.590;2023-07-29T02:31:24;6.38;;;4.00;;
78298;SDS011;67556;55.656;12.590;2023-07-29T02:33:51;6.05;;;4.57;;
78298;SDS011;67556;55.656;12.590;2023-07-29T02:36:36;6.00;;;4.35;;
78298;SDS011;67556;55.656;12.590;2023-07-29T02:39:03;8.10;;;4.97;;
78298;SDS011;67556;55.656;12.590;2023-07-29T02:41:48;6.00;;;4.68;;
78298;SDS011;67556;55.656;12.590;2023-07-29T02:44:15;6.78;;;4.95;;
78298;SDS011;67556;55.656;12.590;2023-07-29T02:46:48;6.88;;;5.28;;
78298;SDS011;67556;55.656;12.590;2023-07-29T02:49:33;7.32;;;4.95;;
78298;SDS011;67556;55.656;12.590;2023-07-29T02:52:00;6.85;;;4.80;;
78298;SDS011;67556;55.656;12.590;2023-07-29T02:54:44;7.28;;;5.28;;
78298;SDS011;67556;55.656;12.590;2023-07-29T02:57:11;6.18;;;5.00;;
78298;SDS011;67556;55.656;12.590;2023-07-29T02:59:59;5.60;;;5.00;;
78298;SDS011;67556;55.656;12.590;2023-07-29T03:02:44;6.50;;;4.75;;
78298;SDS011;67556;55.656;12.590;2023-07-29T03:05:10;6.05;;;4.78;;
78298;SDS011;67556;55.656;12.590;2023-07-29T03:07:55;6.05;;;5.07;;
78298;SDS011;67556;55.656;12.590;2023-07-29T03:10:22;6.65;;;5.40;;
78298;SDS011;67556;55.656;12.590;2023-07-29T03:13:07;6.88;;;4.90;;
78298;SDS011;67556;55.656;12.590;2023-07-29T03:15:53;7.45;;;5.65;;
78298;SDS011;67556;55.656;12.590;2023-07-29T03:18:19;7.10;;;5.28;;
78298;SDS011;67556;55.656;12.590;2023-07-29T03:21:04;7.47;;;5.15;;
78298;SDS011;67556;55.656;12.590;2023-07-29T03:23:31;7.00;;;5.35;;
78298;SDS011;67556;55.656;12.590;2023-07-29T03:26:17;8.27;;;5.78;;
78298;SDS011;67556;55.656;12.590;2023-07-29T03:28:43;6.65;;;5.47;;
78298;SDS011;67556;55.656;12.590;2023-07-29T03:31:30;7.70;;;5.30;;
78298;SDS011;67556;55.656;12.590;2023-07-29T03:33:56;7.57;;;5.22;;
78298;SDS011;67556;55.656;12.590;2023-07-29T03:36:41;5.82;;;4.95;;
78298;SDS011;67556;55.656;12.590;2023-07-29T03:39:26;6.82;;;5.03;;
78298;SDS011;67556;55.656;12.590;2023-07-29T03:41:53;6.65;;;5.03;;
78298;SDS011;67556;55.656;12.590;2023-07-29T03:44:38;9.07;;;5.55;;
78298;SDS011;67556;55.656;12.590;2023-07-29T03:47:06;7.53;;;5.00;;
78298;SDS011;67556;55.656;12.590;2023-07-29T03:49:52;6.93;;;5.45;;
78298;SDS011;67556;55.656;12.590;2023-07-29T03:52:18;6.65;;;5.13;;
78298;SDS011;67556;55.656;12.590;2023-07-29T03:55:04;7.03;;;4.88;;
78298;SDS011;67556;55.656;12.590;2023-07-29T03:57:30;5.97;;;4.97;;
78298;SDS011;67556;55.656;12.590;2023-07-29T04:00:15;6.85;;;4.93;;
78298;SDS011;67556;55.656;12.590;2023-07-29T04:02:43;6.97;;;5.22;;
78298;SDS011;67556;55.656;12.590;2023-07-29T04:05:29;8.38;;;5.60;;
78298;SDS011;67556;55.656;12.590;2023-07-29T04:08:05;5.63;;;4.93;;
78298;SDS011;67556;55.656;12.590;2023-07-29T04:10:50;7.32;;;5.25;;
78298;SDS011;67556;55.656;12.590;2023-07-29T04:13:17;10.85;;;5.45;;
78298;SDS011;67556;55.656;12.590;2023-07-29T04:16:03;7.47;;;5.80;;
78298;SDS011;67556;55.656;12.590;2023-07-29T04:18:30;6.22;;;5.25;;
78298;SDS011;67556;55.656;12.590;2023-07-29T04:21:16;7.10;;;5.15;;
78298;SDS011;67556;55.656;12.590;2023-07-29T04:23:42;6.35;;;4.82;;
78298;SDS011;67556;55.656;12.590;2023-07-29T04:26:27;5.90;;;4.63;;
78298;SDS011;67556;55.656;12.590;2023-07-29T04:28:53;7.53;;;5.70;;
78298;SDS011;67556;55.656;12.590;2023-07-29T04:31:42;7.03;;;5.20;;
78298;SDS011;67556;55.656;12.590;2023-07-29T04:34:10;7.25;;;5.28;;
78298;SDS011;67556;55.656;12.590;2023-07-29T04:36:55;6.00;;;4.85;;
78298;SDS011;67556;55.656;12.590;2023-07-29T04:39:21;7.82;;;5.63;;
78298;SDS011;67556;55.656;12.590;2023-07-29T04:42:06;6.93;;;5.30;;
78298;SDS011;67556;55.656;12.590;2023-07-29T04:44:33;6.97;;;4.97;;
78298;SDS011;67556;55.656;12.590;2023-07-29T04:47:12;7.18;;;5.57;;
78298;SDS011;67556;55.656;12.590;2023-07-29T04:49:59;5.45;;;4.60;;
78298;SDS011;67556;55.656;12.590;2023-07-29T04:52:25;7.22;;;5.63;;
78298;SDS011;67556;55.656;12.590;2023-07-29T04:55:10;6.70;;;5.80;;
78298;SDS011;67556;55.656;12.590;2023-07-29T04:57:55;6.32;;;5.53;;
78298;SDS011;67556;55.656;12.590;2023-07-29T05:00:22;6.60;;;5.40;;
78298;SDS011;67556;55.656;12.590;2023-07-29T05:03:07;5.93;;;5.32;;
78298;SDS011;67556;55.656;12.590;2023-07-29T05:05:35;6.30;;;5.45;;
78298;SDS011;67556;55.656;12.590;2023-07-29T05:08:20;6.72;;;5.40;;
78298;SDS011;67556;55.656;12.590;2023-07-29T05:10:48;6.97;;;5.47;;
78298;SDS011;67556;55.656;12.590;2023-07-29T05:13:33;6.38;;;5.20;;
78298;SDS011;67556;55.656;12.590;2023-07-29T05:15:59;6.57;;;5.35;;
78298;SDS011;67556;55.656;12.590;2023-07-29T05:18:44;8.02;;;5.18;;
78298;SDS011;67556;55.656;12.590;2023-07-29T05:21:12;8.10;;;5.07;;
78298;SDS011;67556;55.656;12.590;2023-07-29T05:23:51;5.97;;;4.93;;
78298;SDS011;67556;55.656;12.590;2023-07-29T05:26:36;6.30;;;4.90;;
78298;SDS011;67556;55.656;12.590;2023-07-29T05:29:02;5.85;;;4.75;;
78298;SDS011;67556;55.656;12.590;2023-07-29T05:31:47;5.55;;;4.70;;
78298;SDS011;67556;55.656;12.590;2023-07-29T05:34:32;6.82;;;4.53;;
78298;SDS011;67556;55.656;12.590;2023-07-29T05:37:00;5.00;;;4.50;;
78298;SDS011;67556;55.656;12.590;2023-07-29T05:39:45;6.72;;;5.03;;
78298;SDS011;67556;55.656;12.590;2023-07-29T05:42:30;6.13;;;4.35;;
78298;SDS011;67556;55.656;12.590;2023-07-29T05:44:56;5.35;;;4.32;;
78298;SDS011;67556;55.656;12.590;2023-07-29T05:47:41;5.07;;;4.45;;
78298;SDS011;67556;55.656;12.590;2023-07-29T05:50:14;6.20;;;4.65;;
78298;SDS011;67556;55.656;12.590;2023-07-29T05:52:54;4.60;;;4.07;;
78298;SDS011;67556;55.656;12.590;2023-07-29T05:55:39;5.13;;;4.30;;
78298;SDS011;67556;55.656;12.590;2023-07-29T05:58:06;6.20;;;4.53;;
78298;SDS011;67556;55.656;12.590;2023-07-29T06:00:51;7.40;;;4.38;;
78298;SDS011;67556;55.656;12.590;2023-07-29T06:03:18;6.28;;;3.70;;
78298;SDS011;67556;55.656;12.590;2023-07-29T06:06:03;6.15;;;4.15;;
78298;SDS011;67556;55.656;12.590;2023-07-29T06:08:49;5.45;;;4.00;;
78298;SDS011;67556;55.656;12.590;2023-07-29T06:11:16;7.15;;;4.47;;
78298;SDS011;67556;55.656;12.590;2023-07-29T06:14:01;4.90;;;3.88;;
78298;SDS011;67556;55.656;12.590;2023-07-29T06:16:27;5.93;;;4.10;;
78298;SDS011;67556;55.656;12.590;2023-07-29T06:18:53;5.03;;;4.20;;
78298;SDS011;67556;55.656;12.590;2023-07-29T06:21:38;5.57;;;4.32;;
78298;SDS011;67556;55.656;12.590;2023-07-29T06:24:06;4.75;;;4.25;;
78298;SDS011;67556;55.656;12.590;2023-07-29T06:26:51;6.07;;;4.40;;
78298;SDS011;67556;55.656;12.590;2023-07-29T06:29:18;7.28;;;4.30;;
78298;SDS011;67556;55.656;12.590;2023-07-29T06:32:03;5.50;;;4.30;;
78298;SDS011;67556;55.656;12.590;2023-07-29T06:34:30;5.70;;;4.10;;
78298;SDS011;67556;55.656;12.590;2023-07-29T06:37:15;5.30;;;4.05;;
78298;SDS011;67556;55.656;12.590;2023-07-29T06:39:42;7.85;;;4.45;;
78298;SDS011;67556;55.656;12.590;2023-07-29T06:42:27;5.97;;;4.07;;
78298;SDS011;67556;55.656;12.590;2023-07-29T06:44:54;5.30;;;4.30;;
78298;SDS011;67556;55.656;12.590;2023-07-29T06:47:39;5.80;;;5.20;;
78298;SDS011;67556;55.656;12.590;2023-07-29T06:50:06;5.03;;;4.07;;
78298;SDS011;67556;55.656;12.590;2023-07-29T06:52:51;5.13;;;4.40;;
78298;SDS011;67556;55.656;12.590;2023-07-29T06:55:19;5.38;;;4.10;;
78298;SDS011;67556;55.656;12.590;2023-07-29T06:58:04;6.38;;;4.40;;
78298;SDS011;67556;55.656;12.590;2023-07-29T07:00:30;5.75;;;4.35;;
78298;SDS011;67556;55.656;12.590;2023-07-29T07:03:04;5.47;;;4.15;;
78298;SDS011;67556;55.656;12.590;2023-07-29T07:05:49;5.50;;;3.97;;
78298;SDS011;67556;55.656;12.590;2023-07-29T07:08:19;5.03;;;4.53;;
78298;SDS011;67556;55.656;12.590;2023-07-29T07:11:05;6.00;;;4.85;;
78298;SDS011;67556;55.656;12.590;2023-07-29T07:13:51;4.55;;;3.85;;
78298;SDS011;67556;55.656;12.590;2023-07-29T07:16:17;6.30;;;4.28;;
78298;SDS011;67556;55.656;12.590;2023-07-29T07:19:03;5.40;;;4.13;;
78298;SDS011;67556;55.656;12.590;2023-07-29T07:21:29;5.00;;;4.22;;
78298;SDS011;67556;55.656;12.590;2023-07-29T07:24:16;4.82;;;4.10;;
78298;SDS011;67556;55.656;12.590;2023-07-29T07:26:44;4.30;;;3.75;;
78298;SDS011;67556;55.656;12.590;2023-07-29T07:29:29;5.15;;;4.20;;
78298;SDS011;67556;55.656;12.590;2023-07-29T07:31:56;4.90;;;4.03;;
78298;SDS011;67556;55.656;12.590;2023-07-29T07:34:41;5.45;;;4.05;;
78298;SDS011;67556;55.656;12.590;2023-07-29T07:37:07;4.78;;;4.18;;
78298;SDS011;67556;55.656;12.590;2023-07-29T07:39:52;6.10;;;4.40;;
78298;SDS011;67556;55.656;12.590;2023-07-29T07:42:20;4.88;;;4.13;;
78298;SDS011;67556;55.656;12.590;2023-07-29T07:44:57;6.47;;;4.35;;
78298;SDS011;67556;55.656;12.590;2023-07-29T07:47:42;5.03;;;3.78;;
78298;SDS011;67556;55.656;12.590;2023-07-29T07:50:09;5.53;;;3.72;;
78298;SDS011;67556;55.656;12.590;2023-07-29T07:52:54;5.05;;;4.10;;
78298;SDS011;67556;55.656;12.590;2023-07-29T07:55:21;6.00;;;4.38;;
78298;SDS011;67556;55.656;12.590;2023-07-29T07:58:07;5.82;;;4.90;;
78298;SDS011;67556;55.656;12.590;2023-07-29T08:00:33;5.10;;;4.20;;
78298;SDS011;67556;55.656;12.590;2023-07-29T08:03:19;4.65;;;4.20;;
78298;SDS011;67556;55.656;12.590;2023-07-29T08:05:47;4.80;;;3.80;;
78298;SDS011;67556;55.656;12.590;2023-07-29T08:08:33;5.22;;;4.25;;
78298;SDS011;67556;55.656;12.590;2023-07-29T08:11:00;5.85;;;4.30;;
78298;SDS011;67556;55.656;12.590;2023-07-29T08:13:46;5.97;;;4.70;;
78298;SDS011;67556;55.656;12.590;2023-07-29T08:16:12;5.95;;;4.65;;
78298;SDS011;67556;55.656;12.590;2023-07-29T08:18:57;6.00;;;4.95;;
78298;SDS011;67556;55.656;12.590;2023-07-29T08:21:24;6.47;;;4.57;;
78298;SDS011;67556;55.656;12.590;2023-07-29T08:24:09;5.80;;;4.60;;
78298;SDS011;67556;55.656;12.590;2023-07-29T08:26:54;6.85;;;5.13;;
78298;SDS011;67556;55.656;12.590;2023-07-29T08:29:22;7.90;;;5.30;;
78298;SDS011;67556;55.656;12.590;2023-07-29T08:32:07;6.90;;;5.35;;
78298;SDS011;67556;55.656;12.590;2023-07-29T08:34:34;7.20;;;5.68;;
78298;SDS011;67556;55.656;12.590;2023-07-29T08:37:19;6.32;;;5.05;;
78298;SDS011;67556;55.656;12.590;2023-07-29T08:39:45;6.70;;;5.03;;
78298;SDS011;67556;55.656;12.590;2023-07-29T08:42:31;7.28;;;5.78;;
78298;SDS011;67556;55.656;12.590;2023-07-29T08:45:01;6.03;;;4.90;;
78298;SDS011;67556;55.656;12.590;2023-07-29T08:47:39;6.72;;;5.03;;
78298;SDS011;67556;55.656;12.590;2023-07-29T08:50:24;7.30;;;5.05;;
78298;SDS011;67556;55.656;12.590;2023-07-29T08:53:17;7.82;;;5.72;;
78298;SDS011;67556;55.656;12.590;2023-07-29T08:55:47;5.82;;;4.68;;
78298;SDS011;67556;55.656;12.590;2023-07-29T08:58:32;8.32;;;5.22;;
78298;SDS011;67556;55.656;12.590;2023-07-29T09:01:00;7.38;;;4.78;;
78298;SDS011;67556;55.656;12.590;2023-07-29T09:03:46;6.93;;;5.07;;
78298;SDS011;67556;55.656;12.590;2023-07-29T09:06:30;7.03;;;5.38;;
78298;SDS011;67556;55.656;12.590;2023-07-29T09:09:03;5.85;;;4.90;;
78298;SDS011;67556;55.656;12.590;2023-07-29T09:11:30;4.82;;;4.20;;
78298;SDS011;67556;55.656;12.590;2023-07-29T09:13:59;7.28;;;5.40;;
78298;SDS011;67556;55.656;12.590;2023-07-29T09:16:45;8.63;;;5.30;;
78298;SDS011;67556;55.656;12.590;2023-07-29T09:19:12;5.53;;;4.20;;
78298;SDS011;67556;55.656;12.590;2023-07-29T09:21:54;5.93;;;4.82;;
78298;SDS011;67556;55.656;12.590;2023-07-29T09:24:21;7.60;;;5.20;;
78298;SDS011;67556;55.656;12.590;2023-07-29T09:26:48;6.72;;;5.05;;
78298;SDS011;67556;55.656;12.590;2023-07-29T09:29:30;6.95;;;5.30;;
78298;SDS011;67556;55.656;12.590;2023-07-29T09:34:59;7.25;;;5.03;;
78298;SDS011;67556;55.656;12.590;2023-07-29T09:37:44;5.72;;;4.68;;
78298;SDS011;67556;55.656;12.590;2023-07-29T09:40:23;7.75;;;5.13;;
78298;SDS011;67556;55.656;12.590;2023-07-29T09:42:55;6.38;;;4.43;;
78298;SDS011;67556;55.656;12.590;2023-07-29T09:45:40;6.13;;;4.95;;
78298;SDS011;67556;55.656;12.590;2023-07-29T09:48:14;5.38;;;4.43;;
78298;SDS011;67556;55.656;12.590;2023-07-29T09:50:59;6.05;;;4.47;;
78298;SDS011;67556;55.656;12.590;2023-07-29T09:53:39;6.00;;;4.78;;
78298;SDS011;67556;55.656;12.590;2023-07-29T09:56:07;7.15;;;4.75;;
78298;SDS011;67556;55.656;12.590;2023-07-29T09:58:39;5.72;;;4.38;;
78298;SDS011;67556;55.656;12.590;2023-07-29T10:01:24;6.20;;;4.47;;
78298;SDS011;67556;55.656;12.590;2023-07-29T10:04:07;6.10;;;4.22;;
78298;SDS011;67556;55.656;12.590;2023-07-29T10:06:46;5.13;;;3.97;;
78298;SDS011;67556;55.656;12.590;2023-07-29T10:09:31;6.63;;;4.28;;
78298;SDS011;67556;55.656;12.590;2023-07-29T10:11:58;5.07;;;4.47;;
78298;SDS011;67556;55.656;12.590;2023-07-29T10:14:34;4.97;;;3.92;;
78298;SDS011;67556;55.656;12.590;2023-07-29T10:17:17;5.55;;;4.28;;
78298;SDS011;67556;55.656;12.590;2023-07-29T10:20:07;5.18;;;3.88;;
78298;SDS011;67556;55.656;12.590;2023-07-29T10:22:41;6.50;;;4.50;;
78298;SDS011;67556;55.656;12.590;2023-07-29T10:25:30;7.28;;;4.22;;
78298;SDS011;67556;55.656;12.590;2023-07-29T10:28:04;5.22;;;4.32;;
78298;SDS011;67556;55.656;12.590;2023-07-29T10:30:51;5.65;;;4.20;;
78298;SDS011;67556;55.656;12.590;2023-07-29T10:33:18;4.68;;;3.90;;
78298;SDS011;67556;55.656;12.590;2023-07-29T10:36:04;5.68;;;3.85;;
78298;SDS011;67556;55.656;12.590;2023-07-29T10:38:31;5.05;;;3.92;;
78298;SDS011;67556;55.656;12.590;2023-07-29T10:40:57;6.57;;;4.60;;
78298;SDS011;67556;55.656;12.590;2023-07-29T10:43:44;5.18;;;4.05;;
78298;SDS011;67556;55.656;12.590;2023-07-29T10:46:29;6.53;;;4.57;;
78298;SDS011;67556;55.656;12.590;2023-07-29T10:49:22;5.07;;;4.10;;
78298;SDS011;67556;55.656;12.590;2023-07-29T10:52:06;5.57;;;4.05;;
78298;SDS011;67556;55.656;12.590;2023-07-29T10:54:51;4.57;;;3.72;;
78298;SDS011;67556;55.656;12.590;2023-07-29T10:57:20;6.28;;;3.97;;
78298;SDS011;67556;55.656;12.590;2023-07-29T11:00:15;5.63;;;4.07;;
78298;SDS011;67556;55.656;12.590;2023-07-29T11:02:56;5.30;;;4.70;;
78298;SDS011;67556;55.656;12.590;2023-07-29T11:05:49;6.55;;;4.45;;
78298;SDS011;67556;55.656;12.590;2023-07-29T11:08:36;5.80;;;4.18;;
78298;SDS011;67556;55.656;12.590;2023-07-29T11:11:04;5.03;;;4.15;;
78298;SDS011;67556;55.656;12.590;2023-07-29T11:13:50;5.25;;;3.72;;
78298;SDS011;67556;55.656;12.590;2023-07-29T11:16:18;4.18;;;3.55;;
78298;SDS011;67556;55.656;12.590;2023-07-29T11:19:04;5.30;;;3.55;;
78298;SDS011;67556;55.656;12.590;2023-07-29T11:21:40;5.07;;;3.90;;
78298;SDS011;67556;55.656;12.590;2023-07-29T11:24:28;5.68;;;3.63;;
78298;SDS011;67556;55.656;12.590;2023-07-29T11:26:55;4.45;;;3.85;;
78298;SDS011;67556;55.656;12.590;2023-07-29T11:29:40;4.63;;;3.70;;
78298;SDS011;67556;55.656;12.590;2023-07-29T11:32:25;6.07;;;3.92;;
78298;SDS011;67556;55.656;12.590;2023-07-29T11:34:52;4.30;;;3.53;;
78298;SDS011;67556;55.656;12.590;2023-07-29T11:37:18;4.65;;;3.80;;
78298;SDS011;67556;55.656;12.590;2023-07-29T11:40:06;4.32;;;3.65;;
78298;SDS011;67556;55.656;12.590;2023-07-29T11:42:53;4.35;;;3.50;;
78298;SDS011;67556;55.656;12.590;2023-07-29T11:45:20;5.53;;;4.00;;
78298;SDS011;67556;55.656;12.590;2023-07-29T11:48:06;4.88;;;3.38;;
78298;SDS011;67556;55.656;12.590;2023-07-29T11:50:33;5.18;;;4.40;;
78298;SDS011;67556;55.656;12.590;2023-07-29T11:53:20;4.88;;;3.65;;
78298;SDS011;67556;55.656;12.590;2023-07-29T11:55:54;5.32;;;3.92;;
78298;SDS011;67556;55.656;12.590;2023-07-29T11:58:46;4.63;;;3.38;;
78298;SDS011;67556;55.656;12.590;2023-07-29T12:01:29;3.50;;;2.80;;
78298;SDS011;67556;55.656;12.590;2023-07-29T12:04:14;4.93;;;3.25;;
78298;SDS011;67556;55.656;12.590;2023-07-29T12:06:44;4.43;;;3.33;;
78298;SDS011;67556;55.656;12.590;2023-07-29T12:09:29;4.00;;;3.10;;
78298;SDS011;67556;55.656;12.590;2023-07-29T12:11:57;4.60;;;3.50;;
78298;SDS011;67556;55.656;12.590;2023-07-29T12:14:44;4.55;;;3.50;;
78298;SDS011;67556;55.656;12.590;2023-07-29T12:17:31;4.65;;;3.72;;
78298;SDS011;67556;55.656;12.590;2023-07-29T12:20:03;3.95;;;3.17;;
78298;SDS011;67556;55.656;12.590;2023-07-29T12:22:54;3.70;;;3.30;;
78298;SDS011;67556;55.656;12.590;2023-07-29T12:25:22;4.15;;;3.60;;
78298;SDS011;67556;55.656;12.590;2023-07-29T12:28:09;3.78;;;3.00;;
78298;SDS011;67556;55.656;12.590;2023-07-29T12:30:41;3.85;;;3.38;;
78298;SDS011;67556;55.656;12.590;2023-07-29T12:33:30;6.65;;;3.40;;
78298;SDS011;67556;55.656;12.590;2023-07-29T12:38:43;4.45;;;3.45;;
78298;SDS011;67556;55.656;12.590;2023-07-29T12:41:11;3.95;;;3.08;;
78298;SDS011;67556;55.656;12.590;2023-07-29T12:43:58;5.15;;;3.08;;
78298;SDS011;67556;55.656;12.590;2023-07-29T12:46:28;3.92;;;3.40;;
78298;SDS011;67556;55.656;12.590;2023-07-29T12:49:16;4.10;;;3.17;;
78298;SDS011;67556;55.656;12.590;2023-07-29T12:51:43;3.88;;;3.13;;
78298;SDS011;67556;55.656;12.590;2023-07-29T12:54:28;3.85;;;3.08;;
78298;SDS011;67556;55.656;12.590;2023-07-29T12:57:23;3.92;;;3.53;;
78298;SDS011;67556;55.656;12.590;2023-07-29T13:00:17;4.20;;;3.38;;
78298;SDS011;67556;55.656;12.590;2023-07-29T13:02:46;4.60;;;2.95;;
78298;SDS011;67556;55.656;12.590;2023-07-29T13:05:32;4.03;;;3.05;;
78298;SDS011;67556;55.656;12.590;2023-07-29T13:08:00;3.50;;;2.90;;
78298;SDS011;67556;55.656;12.590;2023-07-29T13:10:27;4.10;;;3.42;;
78298;SDS011;67556;55.656;12.590;2023-07-29T13:13:16;3.63;;;2.92;;
78298;SDS011;67556;55.656;12.590;2023-07-29T13:15:44;3.75;;;2.83;;
78298;SDS011;67556;55.656;12.590;2023-07-29T13:18:20;3.75;;;2.90;;
78298;SDS011;67556;55.656;12.590;2023-07-29T13:21:06;3.83;;;2.75;;
78298;SDS011;67556;55.656;12.590;2023-07-29T13:23:33;4.50;;;3.75;;
78298;SDS011;67556;55.656;12.590;2023-07-29T13:26:06;3.40;;;2.63;;
78298;SDS011;67556;55.656;12.590;2023-07-29T13:28:53;4.30;;;2.65;;
78298;SDS011;67556;55.656;12.590;2023-07-29T13:31:23;2.63;;;2.38;;
78298;SDS011;67556;55.656;12.590;2023-07-29T13:34:09;2.80;;;2.50;;
78298;SDS011;67556;55.656;12.590;2023-07-29T13:36:36;3.67;;;2.63;;
78298;SDS011;67556;55.656;12.590;2023-07-29T13:39:24;3.15;;;2.30;;
78298;SDS011;67556;55.656;12.590;2023-07-29T13:41:54;3.33;;;2.40;;
78298;SDS011;67556;55.656;12.590;2023-07-29T13:44:41;2.78;;;2.30;;
78298;SDS011;67556;55.656;12.590;2023-07-29T13:47:29;2.60;;;2.13;;
78298;SDS011;67556;55.656;12.590;2023-07-29T13:50:14;3.05;;;2.67;;
78298;SDS011;67556;55.656;12.590;2023-07-29T13:52:41;2.60;;;2.30;;
78298;SDS011;67556;55.656;12.590;2023-07-29T13:55:26;3.03;;;2.33;;
78298;SDS011;67556;55.656;12.590;2023-07-29T13:57:59;2.67;;;2.17;;
78298;SDS011;67556;55.656;12.590;2023-07-29T14:00:51;3.03;;;2.53;;
78298;SDS011;67556;55.656;12.590;2023-07-29T14:03:19;3.35;;;2.60;;
78298;SDS011;67556;55.656;12.590;2023-07-29T14:06:05;3.42;;;2.50;;
78298;SDS011;67556;55.656;12.590;2023-07-29T14:08:50;2.35;;;2.15;;
78298;SDS011;67556;55.656;12.590;2023-07-29T14:11:17;3.25;;;2.53;;
78298;SDS011;67556;55.656;12.590;2023-07-29T14:14:02;2.95;;;2.60;;
78298;SDS011;67556;55.656;12.590;2023-07-29T14:16:29;3.38;;;2.67;;
78298;SDS011;67556;55.656;12.590;2023-07-29T14:19:15;2.83;;;2.50;;
78298;SDS011;67556;55.656;12.590;2023-07-29T14:21:42;2.85;;;2.38;;
78298;SDS011;67556;55.656;12.590;2023-07-29T14:24:08;3.33;;;2.45;;
78298;SDS011;67556;55.656;12.590;2023-07-29T14:26:54;5.63;;;3.08;;
78298;SDS011;67556;55.656;12.590;2023-07-29T14:29:20;3.38;;;2.97;;
78298;SDS011;67556;55.656;12.590;2023-07-29T14:32:06;4.13;;;3.30;;
78298;SDS011;67556;55.656;12.590;2023-07-29T14:34:34;5.10;;;3.70;;
78298;SDS011;67556;55.656;12.590;2023-07-29T14:37:19;4.78;;;3.90;;
78298;SDS011;67556;55.656;12.590;2023-07-29T14:39:46;4.55;;;3.65;;
78298;SDS011;67556;55.656;12.590;2023-07-29T14:42:31;5.10;;;4.40;;
78298;SDS011;67556;55.656;12.590;2023-07-29T14:44:57;5.38;;;4.18;;
78298;SDS011;67556;55.656;12.590;2023-07-29T14:47:43;5.47;;;4.50;;
78298;SDS011;67556;55.656;12.590;2023-07-29T14:50:29;5.55;;;4.28;;
78298;SDS011;67556;55.656;12.590;2023-07-29T14:53:14;6.25;;;5.00;;
78298;SDS011;67556;55.656;12.590;2023-07-29T14:55:41;5.63;;;4.45;;
78298;SDS011;67556;55.656;12.590;2023-07-29T14:58:27;7.78;;;4.70;;
78298;SDS011;67556;55.656;12.590;2023-07-29T15:00:54;6.90;;;5.30;;
78298;SDS011;67556;55.656;12.590;2023-07-29T15:03:38;7.60;;;5.30;;
78298;SDS011;67556;55.656;12.590;2023-07-29T15:06:07;6.10;;;4.82;;
78298;SDS011;67556;55.656;12.590;2023-07-29T15:08:52;7.10;;;5.10;;
78298;SDS011;67556;55.656;12.590;2023-07-29T15:11:19;9.50;;;5.93;;
78298;SDS011;67556;55.656;12.590;2023-07-29T15:14:05;6.55;;;5.35;;
78298;SDS011;67556;55.656;12.590;2023-07-29T15:16:32;6.57;;;4.80;;
78298;SDS011;67556;55.656;12.590;2023-07-29T15:19:20;8.05;;;5.18;;
78298;SDS011;67556;55.656;12.590;2023-07-29T15:21:51;10.43;;;6.40;;
78298;SDS011;67556;55.656;12.590;2023-07-29T15:24:31;7.93;;;6.13;;
78298;SDS011;67556;55.656;12.590;2023-07-29T15:27:16;7.18;;;5.75;;
78298;SDS011;67556;55.656;12.590;2023-07-29T15:29:55;8.23;;;5.43;;
78298;SDS011;67556;55.656;12.590;2023-07-29T15:32:41;8.23;;;5.30;;
78298;SDS011;67556;55.656;12.590;2023-07-29T15:35:27;10.15;;;5.85;;
78298;SDS011;67556;55.656;12.590;2023-07-29T15:37:58;7.80;;;6.07;;
78298;SDS011;67556;55.656;12.590;2023-07-29T15:40:35;8.05;;;6.32;;
78298;SDS011;67556;55.656;12.590;2023-07-29T15:43:22;7.70;;;5.82;;